Time;durP1;ratioP1;P1;durP2;ratioP2;P2;SDS_P1;SDS_P2;PMS_P1;PMS_P2;Temp;Humidity;BMP_temperature;BMP_pressure;BME280_temperature;BME280_humidity;BME280_pressure;Samples;Min_cycle;Max_cycle;Signal;HPM_P1;HPM_P2
2024/02/23 00:00:07;;;;;;;268.42;177.52;;;;;;;;;;4969521;28;20031;-67
2024/02/23 00:02:33;;;;;;;262.73;175.05;;;;;;;;;;4969646;28;20463;-66
2024/02/23 00:04:59;;;;;;;270.30;180.00;;;;;;;;;;4969658;28;20154;-65
2024/02/23 00:07:25;;;;;;;267.73;178.18;;;;;;;;;;4969374;28;20027;-66
2024/02/23 00:09:51;;;;;;;265.45;176.05;;;;;;;;;;4969466;28;20080;-66
2024/02/23 00:12:17;;;;;;;272.75;178.82;;;;;;;;;;4969091;28;20463;-66
2024/02/23 00:14:43;;;;;;;254.77;170.00;;;;;;;;;;4969691;28;20015;-66
2024/02/23 00:17:09;;;;;;;271.50;176.55;;;;;;;;;;4952097;28;20091;-66
2024/02/23 00:19:35;;;;;;;260.08;170.20;;;;;;;;;;4973787;28;20042;-67
2024/02/23 00:22:01;;;;;;;262.60;174.82;;;;;;;;;;4969417;28;20501;-67
2024/02/23 00:24:27;;;;;;;258.55;170.68;;;;;;;;;;4969792;28;20411;-66
2024/02/23 00:26:53;;;;;;;254.02;168.00;;;;;;;;;;4969843;28;20119;-67
2024/02/23 00:29:21;;;;;;;258.42;168.60;;;;;;;;;;4969326;28;20072;-65
2024/02/23 00:31:47;;;;;;;251.05;167.52;;;;;;;;;;4969189;28;20035;-66
2024/02/23 00:34:13;;;;;;;249.93;168.75;;;;;;;;;;4969163;28;20111;-65
2024/02/23 00:36:40;;;;;;;247.52;166.13;;;;;;;;;;4969024;28;20549;-66
2024/02/23 00:39:10;;;;;;;255.05;168.07;;;;;;;;;;4973765;28;20045;-67
2024/02/23 00:41:36;;;;;;;249.65;164.60;;;;;;;;;;4969437;28;20271;-66
2024/02/23 00:44:02;;;;;;;246.73;163.77;;;;;;;;;;4969488;28;20019;-67
2024/02/23 00:46:28;;;;;;;243.90;157.65;;;;;;;;;;4969017;28;20023;-65
2024/02/23 00:48:54;;;;;;;241.27;160.10;;;;;;;;;;4968771;28;20102;-69
2024/02/23 00:51:20;;;;;;;237.45;156.32;;;;;;;;;;4968537;28;20042;-70
2024/02/23 00:53:46;;;;;;;235.60;159.65;;;;;;;;;;4968966;28;20027;-70
2024/02/23 00:56:12;;;;;;;238.48;157.73;;;;;;;;;;4968779;28;20149;-69
2024/02/23 00:58:39;;;;;;;239.48;157.20;;;;;;;;;;4968558;28;20089;-68
2024/02/23 01:01:05;;;;;;;234.75;153.85;;;;;;;;;;4968357;28;20569;-66
2024/02/23 01:03:31;;;;;;;229.60;155.00;;;;;;;;;;4974223;28;20030;-67
2024/02/23 01:05:57;;;;;;;233.85;154.38;;;;;;;;;;4968437;28;20033;-66
2024/02/23 01:08:23;;;;;;;241.15;156.82;;;;;;;;;;4972967;28;20027;-68
2024/02/23 01:10:49;;;;;;;230.85;152.93;;;;;;;;;;4968224;28;20401;-68
2024/02/23 01:13:15;;;;;;;231.52;150.65;;;;;;;;;;4968324;28;20027;-67
2024/02/23 01:15:41;;;;;;;223.35;150.98;;;;;;;;;;4968777;28;20015;-68
2024/02/23 01:18:08;;;;;;;232.55;149.48;;;;;;;;;;4968228;28;20478;-67
2024/02/23 01:20:34;;;;;;;223.00;148.20;;;;;;;;;;4968268;28;20015;-66
2024/02/23 01:23:00;;;;;;;219.15;145.90;;;;;;;;;;4968508;28;20494;-66
2024/02/23 01:25:26;;;;;;;219.07;148.27;;;;;;;;;;4968586;28;20030;-66
2024/02/23 01:27:52;;;;;;;220.32;145.38;;;;;;;;;;4968764;28;20355;-66
2024/02/23 01:30:21;;;;;;;224.23;147.57;;;;;;;;;;4967992;28;20042;-67
2024/02/23 01:32:47;;;;;;;218.55;143.55;;;;;;;;;;4968471;28;20063;-67
2024/02/23 01:35:13;;;;;;;218.93;146.25;;;;;;;;;;4968220;28;20122;-67
2024/02/23 01:37:39;;;;;;;208.02;141.45;;;;;;;;;;4968393;28;20156;-67
2024/02/23 01:40:06;;;;;;;212.80;143.52;;;;;;;;;;4968822;28;20092;-67
2024/02/23 01:42:32;;;;;;;211.70;142.07;;;;;;;;;;4976425;28;20025;-68
2024/02/23 01:44:58;;;;;;;212.32;142.07;;;;;;;;;;4969731;28;20109;-68
2024/02/23 01:47:24;;;;;;;211.63;140.25;;;;;;;;;;4970587;28;20055;-67
2024/02/23 01:49:51;;;;;;;210.90;142.18;;;;;;;;;;4970833;28;20459;-68
2024/02/23 01:52:17;;;;;;;206.65;137.77;;;;;;;;;;4968576;28;20058;-68
2024/02/23 01:54:44;;;;;;;209.77;140.27;;;;;;;;;;4969477;28;20024;-68
2024/02/23 01:57:11;;;;;;;202.20;134.27;;;;;;;;;;4971868;28;20030;-68
2024/02/23 01:59:38;;;;;;;202.82;135.55;;;;;;;;;;4971375;28;20097;-67
2024/02/23 02:02:05;;;;;;;200.10;133.95;;;;;;;;;;4971064;28;20087;-71
2024/02/23 02:04:31;;;;;;;194.40;130.75;;;;;;;;;;4971327;28;20046;-68
2024/02/23 02:06:58;;;;;;;202.38;132.35;;;;;;;;;;4974171;28;20023;-69
2024/02/23 02:09:24;;;;;;;194.70;129.93;;;;;;;;;;4971920;28;20031;-67
2024/02/23 02:11:50;;;;;;;194.45;129.68;;;;;;;;;;4971080;28;20436;-67
2024/02/23 02:14:17;;;;;;;197.23;129.70;;;;;;;;;;4971162;28;20105;-66
2024/02/23 02:16:43;;;;;;;195.88;129.13;;;;;;;;;;4979507;28;20022;-68
2024/02/23 02:19:10;;;;;;;185.63;125.80;;;;;;;;;;4970876;28;20037;-67
2024/02/23 02:21:36;;;;;;;191.35;128.35;;;;;;;;;;4970986;28;20524;-67
2024/02/23 02:24:02;;;;;;;190.80;125.72;;;;;;;;;;4971171;28;20100;-69
2024/02/23 02:26:29;;;;;;;191.23;126.50;;;;;;;;;;4970756;28;20095;-69
2024/02/23 02:28:55;;;;;;;194.95;129.18;;;;;;;;;;4970956;28;20035;-69
2024/02/23 02:31:21;;;;;;;182.20;123.65;;;;;;;;;;4953111;28;20033;-69
2024/02/23 02:33:47;;;;;;;188.23;126.97;;;;;;;;;;4970784;28;20054;-69
2024/02/23 02:36:13;;;;;;;186.20;121.45;;;;;;;;;;4970700;28;20019;-67
2024/02/23 02:38:39;;;;;;;184.98;121.80;;;;;;;;;;4975403;28;20035;-67
2024/02/23 02:41:05;;;;;;;179.77;122.05;;;;;;;;;;4970460;28;20049;-68
2024/02/23 02:43:31;;;;;;;175.98;121.35;;;;;;;;;;4970721;28;20470;-68
2024/02/23 02:45:58;;;;;;;179.07;119.25;;;;;;;;;;4970831;28;20027;-67
2024/02/23 02:48:24;;;;;;;175.77;118.00;;;;;;;;;;4970266;28;20474;-68
2024/02/23 02:50:51;;;;;;;178.75;120.38;;;;;;;;;;4970548;28;20054;-67
2024/02/23 02:53:17;;;;;;;170.02;116.85;;;;;;;;;;4970563;28;20023;-67
2024/02/23 02:55:43;;;;;;;175.85;118.32;;;;;;;;;;4970519;28;20098;-67
2024/02/23 02:58:09;;;;;;;179.55;118.28;;;;;;;;;;4970266;28;20042;-67
2024/02/23 03:00:35;;;;;;;170.88;116.88;;;;;;;;;;4970157;28;20735;-66
2024/02/23 03:03:01;;;;;;;175.45;114.63;;;;;;;;;;4970545;28;20133;-67
2024/02/23 03:05:27;;;;;;;165.35;112.78;;;;;;;;;;4970340;28;20025;-67
2024/02/23 03:07:53;;;;;;;161.77;111.30;;;;;;;;;;4974000;28;20401;-67
2024/02/23 03:10:19;;;;;;;165.80;112.20;;;;;;;;;;4970057;28;20031;-67
2024/02/23 03:12:45;;;;;;;169.25;113.53;;;;;;;;;;4970118;28;20096;-67
2024/02/23 03:15:11;;;;;;;170.23;113.88;;;;;;;;;;4970402;28;20105;-68
2024/02/23 03:17:37;;;;;;;162.68;113.18;;;;;;;;;;4970411;28;20487;-66
2024/02/23 03:20:10;;;;;;;165.80;111.75;;;;;;;;;;4969988;28;20031;-68
2024/02/23 03:22:37;;;;;;;160.05;108.60;;;;;;;;;;4962970;28;20031;-67
2024/02/23 03:25:08;;;;;;;166.38;111.07;;;;;;;;;;4970132;28;20099;-67
2024/02/23 03:27:33;;;;;;;154.43;106.43;;;;;;;;;;4962901;28;20030;-68
2024/02/23 03:30:00;;;;;;;160.50;108.93;;;;;;;;;;4969670;28;20027;-68
2024/02/23 03:32:26;;;;;;;159.25;107.00;;;;;;;;;;4969727;28;20114;-67
2024/02/23 03:34:52;;;;;;;151.07;103.40;;;;;;;;;;4970291;28;20043;-67
2024/02/23 03:37:18;;;;;;;154.32;102.78;;;;;;;;;;4970000;28;20026;-67
2024/02/23 03:39:44;;;;;;;150.25;102.25;;;;;;;;;;4969980;28;20079;-66
2024/02/23 03:42:10;;;;;;;153.52;102.82;;;;;;;;;;4969785;28;20076;-66
2024/02/23 03:44:36;;;;;;;150.93;101.65;;;;;;;;;;4969815;28;20027;-67
2024/02/23 03:47:02;;;;;;;152.82;102.80;;;;;;;;;;4970410;28;20399;-67
2024/02/23 03:49:28;;;;;;;154.75;102.90;;;;;;;;;;4944391;28;20059;-66
2024/02/23 03:51:54;;;;;;;150.82;99.90;;;;;;;;;;4969709;28;20470;-67
2024/02/23 03:54:20;;;;;;;146.20;97.35;;;;;;;;;;4969668;28;20034;-67
2024/02/23 03:56:46;;;;;;;150.10;100.75;;;;;;;;;;4969938;28;20102;-67
2024/02/23 03:59:12;;;;;;;143.82;96.30;;;;;;;;;;4969376;28;20026;-67
2024/02/23 04:01:39;;;;;;;141.95;97.28;;;;;;;;;;4969742;28;20023;-66
2024/02/23 04:04:05;;;;;;;148.77;98.45;;;;;;;;;;4972024;28;20049;-67
2024/02/23 04:06:31;;;;;;;146.50;95.32;;;;;;;;;;4974185;28;20022;-68
2024/02/23 04:08:57;;;;;;;139.52;94.78;;;;;;;;;;4976502;28;20042;-68
2024/02/23 04:11:23;;;;;;;145.70;95.40;;;;;;;;;;4973390;28;20478;-65
2024/02/23 04:13:49;;;;;;;138.95;92.78;;;;;;;;;;4972699;28;20031;-66
2024/02/23 04:16:15;;;;;;;135.98;91.82;;;;;;;;;;4976344;28;20034;-68
2024/02/23 04:18:41;;;;;;;138.65;91.47;;;;;;;;;;4979963;28;20035;-68
2024/02/23 04:21:07;;;;;;;131.52;91.60;;;;;;;;;;4976753;28;20100;-66
2024/02/23 04:23:33;;;;;;;142.73;90.15;;;;;;;;;;4977893;28;20078;-69
2024/02/23 04:25:59;;;;;;;130.88;87.97;;;;;;;;;;4975625;28;20106;-69
2024/02/23 04:28:27;;;;;;;133.93;88.10;;;;;;;;;;4974437;28;20092;-68
2024/02/23 04:30:53;;;;;;;127.35;87.88;;;;;;;;;;4969523;28;20031;-66
2024/02/23 04:33:19;;;;;;;128.02;85.13;;;;;;;;;;4951622;28;20050;-67
2024/02/23 04:35:45;;;;;;;128.55;87.07;;;;;;;;;;4969421;28;20661;-65
2024/02/23 04:38:11;;;;;;;125.80;82.35;;;;;;;;;;4968872;28;20062;-65
2024/02/23 04:40:37;;;;;;;130.00;84.13;;;;;;;;;;4968835;28;20023;-65
2024/02/23 04:43:03;;;;;;;124.65;82.47;;;;;;;;;;4968921;28;20041;-65
2024/02/23 04:45:29;;;;;;;130.25;82.00;;;;;;;;;;4969169;28;20025;-66
2024/02/23 04:47:55;;;;;;;118.30;79.32;;;;;;;;;;4969155;28;20027;-67
2024/02/23 04:50:22;;;;;;;119.85;81.13;;;;;;;;;;4969010;28;20030;-68
2024/02/23 04:52:50;;;;;;;114.97;78.15;;;;;;;;;;4943630;28;20401;-68
2024/02/23 04:55:16;;;;;;;115.05;77.45;;;;;;;;;;4976508;28;20534;-67
2024/02/23 04:57:42;;;;;;;116.90;78.28;;;;;;;;;;4968876;28;20058;-65
2024/02/23 05:00:08;;;;;;;118.55;79.20;;;;;;;;;;4968694;28;20046;-65
2024/02/23 05:02:35;;;;;;;119.13;77.80;;;;;;;;;;4968617;28;20026;-67
2024/02/23 05:05:01;;;;;;;120.38;79.07;;;;;;;;;;4969274;28;20023;-69
2024/02/23 05:07:27;;;;;;;114.82;77.15;;;;;;;;;;4968423;28;20058;-68
2024/02/23 05:09:53;;;;;;;120.75;78.30;;;;;;;;;;4969314;28;20131;-68
2024/02/23 05:12:19;;;;;;;114.93;75.50;;;;;;;;;;4969218;28;20023;-68
2024/02/23 05:14:45;;;;;;;119.47;77.85;;;;;;;;;;4969455;28;20433;-68
2024/02/23 05:17:11;;;;;;;112.13;75.53;;;;;;;;;;4969349;28;20029;-67
2024/02/23 05:19:37;;;;;;;110.53;74.05;;;;;;;;;;4969296;28;20019;-67
2024/02/23 05:22:03;;;;;;;109.60;73.85;;;;;;;;;;4969304;28;20578;-66
2024/02/23 05:24:30;;;;;;;109.35;74.50;;;;;;;;;;4983597;28;20448;-67
2024/02/23 05:26:57;;;;;;;109.15;74.45;;;;;;;;;;4969323;28;20027;-65
2024/02/23 05:29:23;;;;;;;103.80;70.93;;;;;;;;;;4969188;28;20026;-67
2024/02/23 05:31:50;;;;;;;105.63;69.38;;;;;;;;;;4972398;28;20030;-67
2024/02/23 05:34:16;;;;;;;109.55;71.18;;;;;;;;;;4972716;28;20027;-66
2024/02/23 05:36:43;;;;;;;102.68;69.18;;;;;;;;;;4972733;28;20023;-66
2024/02/23 05:39:09;;;;;;;104.10;69.78;;;;;;;;;;4947215;28;20027;-67
2024/02/23 05:41:36;;;;;;;101.22;67.25;;;;;;;;;;4973407;28;20022;-67
2024/02/23 05:44:05;;;;;;;101.50;69.10;;;;;;;;;;4972955;28;20019;-67
2024/02/23 05:46:31;;;;;;;98.55;67.15;;;;;;;;;;4972918;28;20093;-67
2024/02/23 05:48:57;;;;;;;99.07;65.05;;;;;;;;;;4976743;28;20027;-68
2024/02/23 05:51:23;;;;;;;97.45;65.80;;;;;;;;;;4977265;28;20054;-66
2024/02/23 05:53:50;;;;;;;98.25;66.03;;;;;;;;;;4973036;28;20111;-68
2024/02/23 05:56:16;;;;;;;98.05;65.05;;;;;;;;;;4973507;28;20086;-68
2024/02/23 05:58:42;;;;;;;93.03;64.60;;;;;;;;;;4973616;28;20027;-68
2024/02/23 06:01:08;;;;;;;94.80;64.47;;;;;;;;;;4975232;28;20039;-67
2024/02/23 06:03:34;;;;;;;97.43;65.30;;;;;;;;;;5015826;28;20197;-67
2024/02/23 06:06:00;;;;;;;94.63;62.60;;;;;;;;;;4972196;28;20410;-68
2024/02/23 06:08:26;;;;;;;103.95;66.72;;;;;;;;;;4971958;28;20031;-67
2024/02/23 06:10:52;;;;;;;99.07;64.47;;;;;;;;;;4971971;28;20027;-66
2024/02/23 06:13:18;;;;;;;94.93;62.30;;;;;;;;;;4971877;28;20450;-67
2024/02/23 06:15:44;;;;;;;93.10;62.00;;;;;;;;;;4972024;28;20023;-67
2024/02/23 06:18:10;;;;;;;92.82;62.15;;;;;;;;;;4971758;28;20027;-66
2024/02/23 06:20:36;;;;;;;93.60;61.15;;;;;;;;;;4971658;28;20586;-67
2024/02/23 06:23:02;;;;;;;91.68;61.50;;;;;;;;;;4971897;28;20026;-69
2024/02/23 06:25:28;;;;;;;88.60;58.10;;;;;;;;;;4946457;28;20410;-67
2024/02/23 06:27:54;;;;;;;94.72;58.05;;;;;;;;;;4972009;28;20038;-66
2024/02/23 06:30:20;;;;;;;92.13;58.38;;;;;;;;;;4971527;28;20113;-67
2024/02/23 06:32:46;;;;;;;94.05;58.38;;;;;;;;;;4971635;28;20398;-67
2024/02/23 06:35:13;;;;;;;94.22;56.40;;;;;;;;;;4971397;28;20034;-67
2024/02/23 06:37:39;;;;;;;91.78;55.92;;;;;;;;;;4972046;28;20023;-65
2024/02/23 06:40:07;;;;;;;91.70;55.88;;;;;;;;;;4972016;28;20023;-65
2024/02/23 06:42:33;;;;;;;90.60;56.47;;;;;;;;;;4963450;28;20034;-65
2024/02/23 06:44:59;;;;;;;85.78;54.70;;;;;;;;;;4972341;28;20634;-65
2024/02/23 06:47:25;;;;;;;77.88;50.58;;;;;;;;;;4971638;28;20069;-65
2024/02/23 06:49:51;;;;;;;85.30;54.30;;;;;;;;;;4971601;28;20030;-66
2024/02/23 06:52:18;;;;;;;77.28;51.25;;;;;;;;;;4971074;28;20700;-66
2024/02/23 06:54:44;;;;;;;83.15;52.22;;;;;;;;;;4971579;28;20022;-62
2024/02/23 06:57:10;;;;;;;77.28;49.00;;;;;;;;;;4971363;28;20046;-64
2024/02/23 06:59:36;;;;;;;85.32;51.75;;;;;;;;;;4971311;28;20025;-62
2024/02/23 07:02:02;;;;;;;88.43;51.10;;;;;;;;;;4971849;28;20478;-62
2024/02/23 07:04:29;;;;;;;80.65;51.05;;;;;;;;;;4969495;28;20027;-62
2024/02/23 07:06:55;;;;;;;82.82;52.10;;;;;;;;;;4975970;28;20035;-64
2024/02/23 07:09:21;;;;;;;73.88;48.90;;;;;;;;;;4989144;28;20125;-63
2024/02/23 07:11:47;;;;;;;73.18;48.88;;;;;;;;;;4991372;28;20492;-64
2024/02/23 07:14:14;;;;;;;79.68;50.10;;;;;;;;;;4984939;28;20072;-63
2024/02/23 07:16:40;;;;;;;78.10;49.90;;;;;;;;;;4969284;28;20035;-63
2024/02/23 07:19:07;;;;;;;75.15;46.85;;;;;;;;;;4967788;28;20027;-63
2024/02/23 07:21:33;;;;;;;74.25;47.15;;;;;;;;;;4968725;28;20421;-63
2024/02/23 07:23:59;;;;;;;70.28;45.53;;;;;;;;;;4969892;28;20023;-63
2024/02/23 07:26:28;;;;;;;71.38;45.95;;;;;;;;;;4970564;28;20023;-63
2024/02/23 07:28:54;;;;;;;72.93;47.80;;;;;;;;;;4970627;28;20018;-63
2024/02/23 07:31:20;;;;;;;70.30;45.10;;;;;;;;;;4970606;28;20029;-63
2024/02/23 07:33:46;;;;;;;69.32;44.28;;;;;;;;;;4971135;28;20030;-63
2024/02/23 07:36:18;;;;;;;69.50;44.03;;;;;;;;;;4951882;28;20395;-63
2024/02/23 07:38:44;;;;;;;70.22;46.92;;;;;;;;;;4952041;28;20046;-64
2024/02/23 07:41:11;;;;;;;63.00;42.72;;;;;;;;;;4951557;28;20483;-63
2024/02/23 07:43:37;;;;;;;68.03;43.40;;;;;;;;;;4951861;28;20042;-63
2024/02/23 07:46:04;;;;;;;71.90;43.53;;;;;;;;;;4951871;29;20119;-62
2024/02/23 07:48:30;;;;;;;68.88;44.55;;;;;;;;;;4951679;28;20102;-63
2024/02/23 07:50:56;;;;;;;67.90;43.88;;;;;;;;;;4952437;28;20066;-63
2024/02/23 07:53:22;;;;;;;64.97;42.72;;;;;;;;;;4970041;28;20482;-60
2024/02/23 07:55:48;;;;;;;69.40;43.72;;;;;;;;;;4971047;28;20023;-63
2024/02/23 07:58:14;;;;;;;65.45;42.28;;;;;;;;;;4970926;28;20027;-63
2024/02/23 08:00:40;;;;;;;62.38;41.05;;;;;;;;;;4970811;28;20058;-63
2024/02/23 08:03:08;;;;;;;64.03;41.00;;;;;;;;;;4970824;28;20047;-63
2024/02/23 08:05:34;;;;;;;57.83;38.92;;;;;;;;;;4971066;28;20034;-63
2024/02/23 08:08:00;;;;;;;72.72;38.80;;;;;;;;;;4970942;28;20030;-63
2024/02/23 08:10:26;;;;;;;64.05;40.30;;;;;;;;;;4970875;28;20031;-62
2024/02/23 08:12:52;;;;;;;61.58;40.90;;;;;;;;;;4968776;28;20023;-62
2024/02/23 08:15:18;;;;;;;59.90;37.88;;;;;;;;;;4970534;28;20492;-63
2024/02/23 08:17:44;;;;;;;57.78;38.35;;;;;;;;;;4970750;28;20030;-63
2024/02/23 08:20:11;;;;;;;64.57;41.33;;;;;;;;;;4969273;28;20088;-63
2024/02/23 08:22:37;;;;;;;59.38;38.08;;;;;;;;;;4968022;28;20034;-63
2024/02/23 08:25:03;;;;;;;59.20;38.10;;;;;;;;;;4970581;28;20031;-63
2024/02/23 08:27:28;;;;;;;58.35;37.40;;;;;;;;;;4970481;28;20038;-62
2024/02/23 08:29:54;;;;;;;48.20;26.63;;;;;;;;;;4970197;28;20031;-63
2024/02/23 08:32:21;;;;;;;21.00;11.00;;;;;;;;;;4970284;28;20027;-64
2024/02/23 08:34:47;;;;;;;18.00;11.48;;;;;;;;;;4970645;28;20026;-65
2024/02/23 08:37:12;;;;;;;8.65;5.20;;;;;;;;;;4970515;28;20031;-65
2024/02/23 08:39:39;;;;;;;3.47;2.08;;;;;;;;;;4970183;28;20474;-65
2024/02/23 08:42:05;;;;;;;3.42;2.08;;;;;;;;;;4970590;28;20080;-66
2024/02/23 08:44:31;;;;;;;3.15;1.45;;;;;;;;;;4970504;28;20023;-66
2024/02/23 08:46:57;;;;;;;3.63;1.30;;;;;;;;;;4970400;28;20027;-67
2024/02/23 08:49:23;;;;;;;2.90;0.98;;;;;;;;;;4970534;28;20034;-67
2024/02/23 08:51:49;;;;;;;2.05;1.10;;;;;;;;;;4970978;28;20536;-66
2024/02/23 08:54:15;;;;;;;2.28;1.15;;;;;;;;;;4970646;28;20023;-66
2024/02/23 08:56:42;;;;;;;2.83;0.95;;;;;;;;;;4971089;28;20023;-66
2024/02/23 08:59:09;;;;;;;3.05;0.90;;;;;;;;;;4970820;28;20023;-65
2024/02/23 09:01:35;;;;;;;2.25;1.15;;;;;;;;;;4970091;28;20508;-65
2024/02/23 09:04:01;;;;;;;1.90;0.88;;;;;;;;;;4970258;28;20031;-65
2024/02/23 09:06:27;;;;;;;3.50;1.08;;;;;;;;;;4970220;28;20035;-65
2024/02/23 09:08:53;;;;;;;2.35;1.17;;;;;;;;;;4970173;28;20054;-65
2024/02/23 09:11:19;;;;;;;2.38;1.10;;;;;;;;;;4969937;28;20175;-66
2024/02/23 09:13:45;;;;;;;4.72;1.27;;;;;;;;;;4969736;28;20023;-66
2024/02/23 09:16:11;;;;;;;1.45;0.80;;;;;;;;;;4969995;28;20029;-64
2024/02/23 09:18:37;;;;;;;1.90;1.02;;;;;;;;;;4969603;28;20061;-65
2024/02/23 09:21:03;;;;;;;1.27;0.85;;;;;;;;;;4969752;28;20027;-65
2024/02/23 09:23:29;;;;;;;3.42;1.63;;;;;;;;;;4969951;28;20486;-65
2024/02/23 09:25:55;;;;;;;1.65;0.80;;;;;;;;;;4969996;28;20027;-65
2024/02/23 09:28:21;;;;;;;2.17;0.95;;;;;;;;;;4968121;28;20023;-63
2024/02/23 09:30:47;;;;;;;3.15;0.80;;;;;;;;;;4969271;28;20031;-62
2024/02/23 09:33:13;;;;;;;3.42;1.25;;;;;;;;;;4969581;28;20050;-62
2024/02/23 09:35:39;;;;;;;5.78;1.20;;;;;;;;;;4969674;28;20639;-62
2024/02/23 09:38:05;;;;;;;1.75;1.02;;;;;;;;;;4969581;28;20023;-61
2024/02/23 09:40:31;;;;;;;2.35;0.80;;;;;;;;;;4969419;28;20483;-63
2024/02/23 09:42:58;;;;;;;2.67;1.48;;;;;;;;;;4969382;28;20031;-62
2024/02/23 09:45:27;;;;;;;3.45;1.02;;;;;;;;;;4969355;28;20037;-62
2024/02/23 09:47:57;;;;;;;2.63;1.00;;;;;;;;;;4969720;28;20030;-63
2024/02/23 09:50:23;;;;;;;4.93;1.52;;;;;;;;;;4971825;28;20027;-63
2024/02/23 09:52:50;;;;;;;1.98;1.17;;;;;;;;;;4968575;28;20038;-63
2024/02/23 09:55:20;;;;;;;4.47;1.55;;;;;;;;;;4968843;28;20027;-63
2024/02/23 09:57:48;;;;;;;5.40;1.75;;;;;;;;;;4968239;28;20445;-64
2024/02/23 10:00:17;;;;;;;6.03;1.83;;;;;;;;;;4969091;28;20034;-63
2024/02/23 10:02:43;;;;;;;3.28;1.13;;;;;;;;;;4969354;28;20022;-63
2024/02/23 10:05:12;;;;;;;5.70;1.40;;;;;;;;;;4969469;28;20031;-63
2024/02/23 10:07:38;;;;;;;4.07;1.30;;;;;;;;;;4968631;28;20076;-63
2024/02/23 10:10:07;;;;;;;5.15;1.20;;;;;;;;;;4969526;28;20031;-64
2024/02/23 10:12:34;;;;;;;2.38;1.20;;;;;;;;;;4969049;28;20080;-63
2024/02/23 10:15:03;;;;;;;6.10;1.42;;;;;;;;;;4969299;28;20049;-64
2024/02/23 10:17:29;;;;;;;3.17;0.88;;;;;;;;;;4972147;28;20023;-63
2024/02/23 10:19:57;;;;;;;4.05;2.35;;;;;;;;;;4972366;28;20513;-63
2024/02/23 10:22:24;;;;;;;5.07;2.78;;;;;;;;;;4972203;28;20037;-61
2024/02/23 10:24:51;;;;;;;5.70;2.42;;;;;;;;;;4972570;28;20038;-63
2024/02/23 10:27:17;;;;;;;3.88;2.10;;;;;;;;;;4972673;28;20030;-61
2024/02/23 10:29:43;;;;;;;6.43;2.45;;;;;;;;;;4972398;28;20374;-63
2024/02/23 10:32:11;;;;;;;7.75;2.45;;;;;;;;;;4971028;28;20038;-62
2024/02/23 10:34:37;;;;;;;5.85;2.15;;;;;;;;;;4971999;28;20042;-62
2024/02/23 10:37:04;;;;;;;4.53;2.33;;;;;;;;;;4972063;28;20023;-62
2024/02/23 10:39:31;;;;;;;6.60;2.30;;;;;;;;;;4972168;28;20061;-63
2024/02/23 10:42:01;;;;;;;3.47;1.98;;;;;;;;;;4971970;28;20122;-62
2024/02/23 10:44:29;;;;;;;8.27;2.28;;;;;;;;;;4971808;28;20544;-61
2024/02/23 10:46:55;;;;;;;5.15;2.40;;;;;;;;;;4972064;28;20114;-63
2024/02/23 10:49:26;;;;;;;5.68;1.45;;;;;;;;;;4971803;28;20023;-62
2024/02/23 10:51:52;;;;;;;6.65;1.88;;;;;;;;;;4971849;28;20113;-62
2024/02/23 10:54:20;;;;;;;6.20;2.13;;;;;;;;;;4972037;28;20034;-63
2024/02/23 10:56:50;;;;;;;6.30;2.13;;;;;;;;;;4971638;28;20027;-62
2024/02/23 10:59:18;;;;;;;2.97;1.57;;;;;;;;;;4971825;28;20023;-63
2024/02/23 11:01:56;;;;;;;4.75;1.92;;;;;;;;;;4971744;28;20023;-63
2024/02/23 11:04:23;;;;;;;5.38;1.98;;;;;;;;;;4971814;28;20110;-62
2024/02/23 11:06:52;;;;;;;2.90;1.63;;;;;;;;;;4971929;28;20478;-63
2024/02/23 11:09:21;;;;;;;5.03;1.85;;;;;;;;;;4972118;28;20492;-63
2024/02/23 11:11:57;;;;;;;3.53;1.80;;;;;;;;;;4971947;28;20046;-62
2024/02/23 11:14:32;;;;;;;4.25;2.00;;;;;;;;;;4972179;28;20156;-62
2024/02/23 11:16:59;;;;;;;2.83;1.90;;;;;;;;;;4972479;28;20034;-63
2024/02/23 11:19:34;;;;;;;4.32;1.80;;;;;;;;;;4972381;28;20113;-62
2024/02/23 11:22:01;;;;;;;3.53;1.80;;;;;;;;;;4972526;28;20050;-63
2024/02/23 11:24:30;;;;;;;4.47;1.55;;;;;;;;;;4971659;28;20039;-63
2024/02/23 11:26:57;;;;;;;3.10;1.98;;;;;;;;;;4970762;28;20027;-62
2024/02/23 11:29:27;;;;;;;8.85;2.05;;;;;;;;;;4970648;28;20027;-63
2024/02/23 11:31:56;;;;;;;6.68;2.30;;;;;;;;;;4971112;28;20026;-64
2024/02/23 11:34:27;;;;;;;4.70;2.10;;;;;;;;;;4971253;28;20027;-63
2024/02/23 11:36:53;;;;;;;4.80;2.13;;;;;;;;;;4971521;28;20113;-63
2024/02/23 11:39:20;;;;;;;3.33;1.42;;;;;;;;;;4971199;28;20399;-63
2024/02/23 11:41:49;;;;;;;3.08;1.60;;;;;;;;;;4971569;28;20026;-63
2024/02/23 11:44:17;;;;;;;4.68;1.70;;;;;;;;;;4971174;28;20102;-63
2024/02/23 11:46:43;;;;;;;3.40;1.70;;;;;;;;;;4971152;28;20098;-63
2024/02/23 11:49:09;;;;;;;5.55;1.75;;;;;;;;;;4971213;28;20068;-63
2024/02/23 11:51:36;;;;;;;3.42;1.58;;;;;;;;;;4970906;28;20019;-62
2024/02/23 11:54:02;;;;;;;3.78;1.40;;;;;;;;;;4970953;28;20054;-62
2024/02/23 11:56:29;;;;;;;4.32;1.73;;;;;;;;;;4970843;28;20417;-62
2024/02/23 11:58:55;;;;;;;2.90;1.55;;;;;;;;;;4971121;28;20425;-62
2024/02/23 12:01:21;;;;;;;2.08;1.30;;;;;;;;;;4971043;28;20402;-62
2024/02/23 12:03:48;;;;;;;4.80;1.95;;;;;;;;;;4970912;28;20026;-62
2024/02/23 12:06:17;;;;;;;3.13;1.85;;;;;;;;;;4970987;28;20110;-62
2024/02/23 12:08:45;;;;;;;2.78;1.27;;;;;;;;;;4970757;28;20480;-62
2024/02/23 12:11:11;;;;;;;3.55;1.77;;;;;;;;;;4970799;28;20414;-63
2024/02/23 12:13:38;;;;;;;3.17;1.60;;;;;;;;;;4970866;28;20038;-62
2024/02/23 12:16:05;;;;;;;3.30;1.50;;;;;;;;;;4970689;28;20448;-62
2024/02/23 12:18:34;;;;;;;2.95;1.35;;;;;;;;;;4970245;28;20054;-63
2024/02/23 12:21:04;;;;;;;1.90;1.40;;;;;;;;;;4970673;28;20023;-62
2024/02/23 12:23:44;;;;;;;3.47;1.45;;;;;;;;;;4970868;28;20419;-62
2024/02/23 12:26:10;;;;;;;1.65;1.00;;;;;;;;;;4970668;28;20027;-62
2024/02/23 12:28:37;;;;;;;4.22;1.80;;;;;;;;;;4970407;28;20182;-61
2024/02/23 12:31:04;;;;;;;3.47;1.27;;;;;;;;;;4970348;28;20051;-62
2024/02/23 12:33:31;;;;;;;3.47;1.75;;;;;;;;;;4970691;28;20114;-60
2024/02/23 12:35:59;;;;;;;2.83;1.30;;;;;;;;;;4970825;28;20034;-62
2024/02/23 12:38:25;;;;;;;2.42;1.25;;;;;;;;;;4969888;28;20023;-62
2024/02/23 12:40:52;;;;;;;5.97;1.48;;;;;;;;;;4970232;28;20092;-62
2024/02/23 12:43:21;;;;;;;1.85;1.08;;;;;;;;;;4970338;28;20050;-62
2024/02/23 12:45:49;;;;;;;14.20;5.88;;;;;;;;;;4970359;28;20494;-62
2024/02/23 12:48:15;;;;;;;4.35;2.17;;;;;;;;;;4969100;28;20398;-64
2024/02/23 12:50:42;;;;;;;3.70;1.77;;;;;;;;;;4969219;28;20031;-64
2024/02/23 12:53:09;;;;;;;2.50;1.23;;;;;;;;;;4970325;28;20022;-66
2024/02/23 12:55:36;;;;;;;3.95;1.05;;;;;;;;;;4970140;28;20041;-63
2024/02/23 12:58:02;;;;;;;2.80;0.75;;;;;;;;;;4969966;28;20023;-63
2024/02/23 13:00:28;;;;;;;1.95;0.63;;;;;;;;;;4969767;28;20019;-63
2024/02/23 13:02:55;;;;;;;1.17;0.77;;;;;;;;;;4969816;28;20429;-63
2024/02/23 13:05:21;;;;;;;4.05;1.20;;;;;;;;;;4969911;28;20510;-63
2024/02/23 13:07:47;;;;;;;1.60;0.88;;;;;;;;;;4970089;28;20124;-63
2024/02/23 13:10:14;;;;;;;3.40;1.05;;;;;;;;;;4969947;28;20031;-62
2024/02/23 13:12:40;;;;;;;2.20;0.95;;;;;;;;;;4969493;28;20499;-62
2024/02/23 13:15:07;;;;;;;3.45;1.00;;;;;;;;;;4970008;28;20038;-63
2024/02/23 13:17:33;;;;;;;1.50;1.00;;;;;;;;;;4969799;28;20027;-63
2024/02/23 13:19:58;;;;;;;2.92;0.98;;;;;;;;;;4969595;28;20034;-63
2024/02/23 13:22:24;;;;;;;3.15;0.75;;;;;;;;;;4969732;28;20031;-63
2024/02/23 13:24:50;;;;;;;1.35;0.90;;;;;;;;;;4969629;28;20394;-63
2024/02/23 13:27:16;;;;;;;3.22;0.93;;;;;;;;;;4969740;28;20037;-64
2024/02/23 13:29:42;;;;;;;3.38;0.85;;;;;;;;;;4969655;28;20474;-63
2024/02/23 13:32:08;;;;;;;2.78;1.10;;;;;;;;;;4967632;28;20031;-64
2024/02/23 13:34:34;;;;;;;1.13;0.80;;;;;;;;;;4969559;28;20022;-64
2024/02/23 13:37:00;;;;;;;3.72;0.85;;;;;;;;;;4969833;28;20019;-64
2024/02/23 13:39:26;;;;;;;1.45;0.68;;;;;;;;;;4969372;28;20498;-64
2024/02/23 13:41:52;;;;;;;0.50;0.43;;;;;;;;;;4969345;28;20118;-63
2024/02/23 13:44:18;;;;;;;1.70;0.65;;;;;;;;;;4969591;28;20023;-64
2024/02/23 13:46:44;;;;;;;1.63;0.70;;;;;;;;;;4969426;28;20402;-64
2024/02/23 13:49:12;;;;;;;2.20;0.73;;;;;;;;;;4983916;28;20020;-61
2024/02/23 13:51:38;;;;;;;1.08;0.75;;;;;;;;;;5016047;28;20390;-61
2024/02/23 13:54:04;;;;;;;2.05;0.82;;;;;;;;;;5026067;28;20033;-62
2024/02/23 13:56:30;;;;;;;3.72;1.00;;;;;;;;;;5073243;28;20024;-64
2024/02/23 13:58:56;;;;;;;5.40;1.92;;;;;;;;;;5074533;28;20025;-64
2024/02/23 14:01:23;;;;;;;2.08;0.60;;;;;;;;;;5074529;28;20021;-65
2024/02/23 14:03:49;;;;;;;3.53;1.15;;;;;;;;;;5074810;28;20024;-66
2024/02/23 14:06:15;;;;;;;1.73;0.85;;;;;;;;;;5074815;28;20024;-64
2024/02/23 14:08:42;;;;;;;4.15;1.23;;;;;;;;;;5047940;28;20027;-63
2024/02/23 14:11:08;;;;;;;1.65;0.73;;;;;;;;;;4972439;28;20402;-64
2024/02/23 14:13:34;;;;;;;1.67;0.98;;;;;;;;;;4972442;28;20038;-64